Time;durP1;ratioP1;P1;durP2;ratioP2;P2;SDS_P1;SDS_P2;PMS_P1;PMS_P2;Temp;Humidity;BMP_temperature;BMP_pressure;BME280_temperature;BME280_humidity;BME280_pressure;Samples;Min_cycle;Max_cycle;Signal;HPM_P1;HPM_P2
2023/05/05 00:00:34;;;;;;;5.38;4.70;;;15.70;85.40;;;;;;5074239;28;20024;-72
2023/05/05 00:03:00;;;;;;;9.02;5.18;;;15.60;86.00;;;;;;5074299;28;20024;-72
2023/05/05 00:05:25;;;;;;;7.15;4.57;;;15.60;86.90;;;;;;5074035;28;20032;-71
2023/05/05 00:07:51;;;;;;;8.60;5.57;;;15.60;86.20;;;;;;5073571;28;20052;-72
2023/05/05 00:10:17;;;;;;;7.88;5.50;;;15.60;86.00;;;;;;5073690;28;20021;-72
2023/05/05 00:12:42;;;;;;;7.43;5.47;;;15.60;84.80;;;;;;5073632;28;20060;-72
2023/05/05 00:15:08;;;;;;;8.13;5.95;;;15.60;84.80;;;;;;5073994;28;20496;-72
2023/05/05 00:17:34;;;;;;;10.20;5.70;;;15.60;85.60;;;;;;5073675;28;20024;-71
2023/05/05 00:20:00;;;;;;;7.85;5.75;;;15.50;86.00;;;;;;5073697;28;20369;-72
2023/05/05 00:22:26;;;;;;;8.60;5.60;;;15.50;85.80;;;;;;5073075;28;20028;-71
2023/05/05 00:24:51;;;;;;;10.30;5.55;;;15.50;85.60;;;;;;5073724;28;20033;-72
2023/05/05 00:27:17;;;;;;;8.85;4.93;;;15.50;85.20;;;;;;5073725;28;20048;-71
2023/05/05 00:29:43;;;;;;;6.85;5.28;;;15.50;85.40;;;;;;5073237;28;20110;-72
2023/05/05 00:32:08;;;;;;;7.25;5.18;;;15.50;85.00;;;;;;5073284;28;20029;-72
2023/05/05 00:34:34;;;;;;;10.05;5.05;;;15.60;85.00;;;;;;5073697;28;20130;-72
2023/05/05 00:37:00;;;;;;;11.75;4.90;;;15.60;84.80;;;;;;5073272;28;20051;-72
2023/05/05 00:39:26;;;;;;;7.57;5.00;;;15.50;84.80;;;;;;5073066;28;20043;-72
2023/05/05 00:41:51;;;;;;;6.28;4.55;;;15.50;85.10;;;;;;5073420;28;20017;-72
2023/05/05 00:44:17;;;;;;;9.27;5.10;;;15.50;85.00;;;;;;5073065;28;20119;-72
2023/05/05 00:46:43;;;;;;;5.68;4.85;;;15.50;85.40;;;;;;5073087;28;20024;-72
2023/05/05 00:49:09;;;;;;;8.88;5.13;;;15.50;86.00;;;;;;5073395;28;20021;-71
2023/05/05 00:51:35;;;;;;;5.65;4.63;;;15.40;85.90;;;;;;5073176;28;20128;-72
2023/05/05 00:54:01;;;;;;;6.82;5.30;;;15.40;86.70;;;;;;5073329;28;20025;-72
2023/05/05 00:56:26;;;;;;;6.38;5.25;;;15.30;87.30;;;;;;5071781;28;20127;-72
2023/05/05 00:58:52;;;;;;;9.18;5.97;;;15.30;87.40;;;;;;5070663;28;20130;-71
2023/05/05 01:01:18;;;;;;;9.20;5.00;;;15.30;87.60;;;;;;5070364;28;20402;-71
2023/05/05 01:03:44;;;;;;;10.73;5.50;;;15.20;87.80;;;;;;5070516;28;20032;-71
2023/05/05 01:06:37;;;;;;;7.22;5.63;;;15.10;87.60;;;;;;5072779;28;20017;-71
2023/05/05 01:09:22;;;;;;;10.13;5.72;;;15.10;87.80;;;;;;5072830;28;20039;-72
2023/05/05 01:12:17;;;;;;;10.77;5.95;;;15.00;87.80;;;;;;5072897;28;20134;-71
2023/05/05 01:14:49;;;;;;;8.20;5.97;;;15.00;88.50;;;;;;5072559;28;20103;-71
2023/05/05 01:17:27;;;;;;;13.88;6.55;;;14.90;88.60;;;;;;5072792;28;20476;-71
2023/05/05 01:20:45;;;;;;;10.25;5.90;;;14.90;88.60;;;;;;5072574;28;20047;-72
2023/05/05 01:23:31;;;;;;;9.07;5.70;;;14.80;89.20;;;;;;5029742;28;20032;-71
2023/05/05 01:26:12;;;;;;;7.30;6.03;;;14.80;89.50;;;;;;5072646;28;20025;-71
2023/05/05 01:29:01;;;;;;;9.18;5.80;;;14.80;89.80;;;;;;5072252;28;20033;-71
2023/05/05 01:31:39;;;;;;;13.77;5.97;;;14.70;90.20;;;;;;5072568;28;20481;-72
2023/05/05 01:34:13;;;;;;;7.20;5.85;;;14.70;90.00;;;;;;5072430;28;20400;-72
2023/05/05 01:36:41;;;;;;;6.63;5.30;;;14.70;89.80;;;;;;5072069;28;20020;-72
2023/05/05 01:39:12;;;;;;;6.30;5.13;;;14.70;90.00;;;;;;5072645;28;20079;-72
2023/05/05 01:41:45;;;;;;;7.53;5.22;;;14.70;90.00;;;;;;5072391;28;20070;-71
2023/05/05 01:44:14;;;;;;;7.20;5.65;;;14.60;90.00;;;;;;5072240;28;20033;-71
2023/05/05 01:46:40;;;;;;;6.63;5.38;;;14.60;90.20;;;;;;5072434;28;20033;-72
2023/05/05 01:49:08;;;;;;;8.63;5.97;;;14.50;90.30;;;;;;5072455;28;20371;-72
2023/05/05 01:51:35;;;;;;;9.27;6.03;;;14.60;90.50;;;;;;5072448;28;20049;-71
2023/05/05 01:54:08;;;;;;;7.40;5.93;;;14.60;90.70;;;;;;5072509;28;20112;-71
2023/05/05 01:56:38;;;;;;;7.68;5.68;;;14.60;90.70;;;;;;5072426;28;20021;-72
2023/05/05 01:59:05;;;;;;;9.10;5.72;;;14.60;90.50;;;;;;5072408;28;20388;-71
2023/05/05 02:01:34;;;;;;;8.48;5.82;;;14.60;90.20;;;;;;5072250;28;20020;-72
2023/05/05 02:04:02;;;;;;;7.93;5.95;;;14.60;90.30;;;;;;5071848;28;20178;-71
2023/05/05 02:06:31;;;;;;;14.95;6.05;;;14.60;90.60;;;;;;5072244;28;20021;-72
2023/05/05 02:08:57;;;;;;;7.07;5.63;;;14.60;90.50;;;;;;5071993;28;20032;-72
2023/05/05 02:11:25;;;;;;;7.38;5.18;;;14.50;90.60;;;;;;5072302;28;20513;-72
2023/05/05 02:13:53;;;;;;;11.35;5.32;;;14.60;90.50;;;;;;5072236;28;20024;-71
2023/05/05 02:16:20;;;;;;;6.63;5.35;;;14.60;90.30;;;;;;5071897;28;20056;-72
2023/05/05 02:18:46;;;;;;;7.03;5.35;;;14.60;90.10;;;;;;5071856;28;20028;-72
2023/05/05 02:21:13;;;;;;;10.50;5.45;;;14.50;90.40;;;;;;5071943;28;20025;-72
2023/05/05 02:23:39;;;;;;;11.50;5.53;;;14.40;90.40;;;;;;5072456;28;20112;-72
2023/05/05 02:26:11;;;;;;;10.65;5.10;;;14.40;90.50;;;;;;5072313;28;20104;-71
2023/05/05 02:28:57;;;;;;;10.70;5.82;;;14.40;90.70;;;;;;5072191;28;20017;-72
2023/05/05 02:31:26;;;;;;;10.20;4.93;;;14.40;90.70;;;;;;5071940;28;20035;-72
2023/05/05 02:33:54;;;;;;;10.02;4.78;;;14.40;90.40;;;;;;5072066;28;20021;-71
2023/05/05 02:36:22;;;;;;;6.47;4.70;;;14.40;90.20;;;;;;5071767;28;20028;-70
2023/05/05 02:38:54;;;;;;;10.15;4.82;;;14.40;90.30;;;;;;5071774;28;20052;-72
2023/05/05 02:41:22;;;;;;;9.55;4.25;;;14.40;90.30;;;;;;5071905;28;20103;-71
2023/05/05 02:43:48;;;;;;;8.15;4.50;;;14.40;90.50;;;;;;5071801;28;20017;-71
2023/05/05 02:46:16;;;;;;;6.63;4.78;;;14.40;90.40;;;;;;5073462;28;20024;-72
2023/05/05 02:48:42;;;;;;;7.63;4.88;;;14.30;90.30;;;;;;5075219;28;20021;-72
2023/05/05 02:51:07;;;;;;;6.60;4.20;;;14.30;90.30;;;;;;5075469;28;20048;-71
2023/05/05 02:53:33;;;;;;;6.45;4.43;;;14.30;90.40;;;;;;5075447;28;20008;-71
2023/05/05 02:56:13;;;;;;;7.53;4.72;;;14.30;90.40;;;;;;5075135;28;20449;-71
2023/05/05 02:58:47;;;;;;;6.90;4.50;;;14.30;90.30;;;;;;5075183;28;20043;-72
2023/05/05 03:01:48;;;;;;;11.20;4.88;;;14.30;90.30;;;;;;5075326;28;20035;-71
2023/05/05 03:04:40;;;;;;;7.47;4.85;;;14.30;90.40;;;;;;5075302;28;20035;-72
2023/05/05 03:07:14;;;;;;;7.85;5.05;;;14.10;90.60;;;;;;5075424;28;20096;-72
2023/05/05 03:09:44;;;;;;;9.43;4.82;;;14.10;90.60;;;;;;5075194;28;20024;-71
2023/05/05 03:12:16;;;;;;;7.60;5.00;;;14.10;90.60;;;;;;5074972;28;20021;-71
2023/05/05 03:14:43;;;;;;;8.70;5.05;;;14.10;90.40;;;;;;5075197;28;20024;-72
2023/05/05 03:17:11;;;;;;;5.97;5.10;;;14.10;90.40;;;;;;5075007;28;20024;-71
2023/05/05 03:19:40;;;;;;;8.18;4.97;;;14.10;90.60;;;;;;5074819;28;20032;-71
2023/05/05 03:22:06;;;;;;;8.95;5.00;;;14.00;90.90;;;;;;5074769;28;20024;-72
2023/05/05 03:24:31;;;;;;;7.68;5.20;;;14.00;90.90;;;;;;5074778;28;20036;-71
2023/05/05 03:26:57;;;;;;;6.40;5.00;;;13.90;90.70;;;;;;5074613;28;20020;-72
2023/05/05 03:29:24;;;;;;;8.50;4.88;;;13.90;90.70;;;;;;5074904;28;20098;-72
2023/05/05 03:31:49;;;;;;;8.23;4.85;;;13.90;90.70;;;;;;5074610;28;20023;-72
2023/05/05 03:34:15;;;;;;;6.00;4.95;;;13.90;90.70;;;;;;5074759;28;20384;-71
2023/05/05 03:36:42;;;;;;;6.25;4.80;;;13.90;90.90;;;;;;5074413;28;20064;-72
2023/05/05 03:39:07;;;;;;;8.18;5.10;;;13.90;90.80;;;;;;5074128;28;20061;-72
2023/05/05 03:41:33;;;;;;;12.55;5.45;;;13.90;90.80;;;;;;5074694;28;20412;-72
2023/05/05 03:43:59;;;;;;;6.30;4.90;;;13.90;91.00;;;;;;5074689;28;20112;-71
2023/05/05 03:46:25;;;;;;;11.85;5.63;;;13.90;91.10;;;;;;5074610;28;20392;-72
2023/05/05 03:48:51;;;;;;;11.23;5.60;;;13.90;91.00;;;;;;5056555;28;20028;-72
2023/05/05 03:51:16;;;;;;;9.13;5.47;;;13.90;90.80;;;;;;5074079;28;20076;-71
2023/05/05 03:53:42;;;;;;;9.07;5.50;;;13.90;90.70;;;;;;5074350;28;20029;-71
2023/05/05 03:56:08;;;;;;;9.68;5.15;;;13.90;90.70;;;;;;5074213;28;20044;-71
2023/05/05 03:58:34;;;;;;;8.88;5.13;;;13.90;90.70;;;;;;5074397;28;20040;-71
2023/05/05 04:01:00;;;;;;;14.60;6.40;;;13.80;90.60;;;;;;5074385;28;20028;-71
2023/05/05 04:03:26;;;;;;;18.42;5.80;;;13.80;90.50;;;;;;5074310;28;20040;-71
2023/05/05 04:05:52;;;;;;;26.90;6.25;;;13.80;90.50;;;;;;5074033;28;20024;-72
2023/05/05 04:08:17;;;;;;;12.25;5.68;;;13.70;90.40;;;;;;5073965;28;20061;-72
2023/05/05 04:10:43;;;;;;;11.15;4.93;;;13.70;90.40;;;;;;5056037;28;20032;-71
2023/05/05 04:13:09;;;;;;;14.35;5.70;;;13.70;90.40;;;;;;5073996;28;20070;-72
2023/05/05 04:15:34;;;;;;;5.93;5.18;;;13.70;90.40;;;;;;5073767;28;20028;-71
2023/05/05 04:18:00;;;;;;;12.27;5.53;;;13.70;90.50;;;;;;5073637;28;20040;-72
2023/05/05 04:20:26;;;;;;;10.55;5.40;;;13.70;90.50;;;;;;5073720;28;20054;-71
2023/05/05 04:22:52;;;;;;;7.63;5.03;;;13.60;90.50;;;;;;5073885;28;20021;-71
2023/05/05 04:25:17;;;;;;;16.55;5.35;;;13.60;90.60;;;;;;5073288;28;20050;-71
2023/05/05 04:27:43;;;;;;;16.20;6.43;;;13.50;90.70;;;;;;5073403;28;20033;-71
2023/05/05 04:30:09;;;;;;;6.00;5.20;;;13.50;90.90;;;;;;5073646;28;20029;-71
2023/05/05 04:32:35;;;;;;;9.55;5.88;;;13.50;90.80;;;;;;5073281;28;20098;-71
2023/05/05 04:35:01;;;;;;;11.07;5.20;;;13.50;90.80;;;;;;5073531;28;20025;-71
2023/05/05 04:37:26;;;;;;;9.30;5.18;;;13.50;90.90;;;;;;5073600;28;20025;-72
2023/05/05 04:39:52;;;;;;;10.27;6.18;;;13.50;90.90;;;;;;5073484;28;20036;-71
2023/05/05 04:42:18;;;;;;;8.85;5.88;;;13.50;90.90;;;;;;5073263;28;20032;-71
2023/05/05 04:44:43;;;;;;;8.10;5.60;;;13.50;90.90;;;;;;5073155;28;20032;-71
2023/05/05 04:47:09;;;;;;;13.68;5.95;;;13.50;91.10;;;;;;5073078;28;20094;-72
2023/05/05 04:49:35;;;;;;;8.52;5.95;;;13.50;91.40;;;;;;5072984;28;20028;-71
2023/05/05 04:52:01;;;;;;;10.18;5.78;;;13.50;91.50;;;;;;5073105;28;20139;-71
2023/05/05 04:54:27;;;;;;;9.02;5.28;;;13.50;91.80;;;;;;5073128;28;20025;-71
2023/05/05 04:56:53;;;;;;;8.43;5.50;;;13.50;91.80;;;;;;5073110;28;20112;-71
2023/05/05 04:59:18;;;;;;;7.10;5.55;;;13.60;92.20;;;;;;5072912;28;20086;-72
2023/05/05 05:01:44;;;;;;;11.52;5.80;;;13.60;92.10;;;;;;5072649;28;20111;-71
2023/05/05 05:04:10;;;;;;;7.43;5.50;;;13.60;92.30;;;;;;5072902;28;20118;-72
2023/05/05 05:06:35;;;;;;;9.15;5.38;;;13.60;92.30;;;;;;5072992;28;20706;-71
2023/05/05 05:09:02;;;;;;;7.95;4.72;;;13.70;92.40;;;;;;5054419;28;20032;-71
2023/05/05 05:11:27;;;;;;;8.68;5.45;;;13.80;92.20;;;;;;5054877;28;20476;-71
2023/05/05 05:13:53;;;;;;;15.65;5.47;;;13.80;92.40;;;;;;5072409;28;20029;-71
2023/05/05 05:16:20;;;;;;;8.05;5.00;;;13.90;92.20;;;;;;5072970;28;20432;-71
2023/05/05 05:18:46;;;;;;;8.07;5.70;;;14.00;92.40;;;;;;5072611;28;20036;-71
2023/05/05 05:21:11;;;;;;;10.00;5.65;;;14.00;92.20;;;;;;5072973;28;20380;-71
2023/05/05 05:23:37;;;;;;;11.38;5.57;;;14.10;92.10;;;;;;5072725;28;20037;-71
2023/05/05 05:26:04;;;;;;;8.48;5.65;;;14.10;91.90;;;;;;5072674;28;20349;-71
2023/05/05 05:28:30;;;;;;;9.77;5.80;;;14.20;91.90;;;;;;5072663;28;20056;-71
2023/05/05 05:30:56;;;;;;;16.52;5.95;;;14.30;91.90;;;;;;5054590;28;20101;-72
2023/05/05 05:33:21;;;;;;;14.82;6.05;;;14.40;91.70;;;;;;5072306;28;20492;-71
2023/05/05 05:35:47;;;;;;;12.60;5.75;;;14.50;91.50;;;;;;5072436;28;20028;-71
2023/05/05 05:38:13;;;;;;;8.23;5.60;;;14.50;91.30;;;;;;5072602;28;20032;-71
2023/05/05 05:40:39;;;;;;;9.30;5.65;;;14.60;91.20;;;;;;5072521;28;20051;-71
2023/05/05 05:43:05;;;;;;;12.90;5.45;;;14.60;91.20;;;;;;5072575;28;20032;-71
2023/05/05 05:45:30;;;;;;;18.35;5.68;;;14.60;91.10;;;;;;5072453;28;20025;-71
2023/05/05 05:47:56;;;;;;;9.82;6.13;;;14.70;91.20;;;;;;5072527;28;20383;-71
2023/05/05 05:50:23;;;;;;;16.83;6.25;;;14.80;91.20;;;;;;5072603;28;20029;-71
2023/05/05 05:52:49;;;;;;;19.40;5.40;;;14.90;91.30;;;;;;5072101;28;20044;-71
2023/05/05 05:55:14;;;;;;;10.13;6.35;;;14.90;91.40;;;;;;5072523;28;20380;-71
2023/05/05 05:57:40;;;;;;;12.82;6.45;;;15.00;91.40;;;;;;5072347;28;20047;-71
2023/05/05 06:00:06;;;;;;;15.43;5.63;;;15.10;91.50;;;;;;5072430;28;20124;-71
2023/05/05 06:02:32;;;;;;;11.38;5.30;;;15.20;91.30;;;;;;5054229;28;20120;-71
2023/05/05 06:04:58;;;;;;;7.80;5.10;;;15.20;91.20;;;;;;5072065;28;20111;-71
2023/05/05 06:07:24;;;;;;;9.40;4.60;;;15.30;91.30;;;;;;5072085;28;20025;-71
2023/05/05 06:09:50;;;;;;;8.60;4.50;;;15.30;91.40;;;;;;5070354;28;20021;-71
2023/05/05 06:12:15;;;;;;;16.30;4.20;;;15.40;91.50;;;;;;5071628;28;20085;-71
2023/05/05 06:14:41;;;;;;;9.77;3.95;;;15.40;91.40;;;;;;5071995;28;20029;-71
2023/05/05 06:17:07;;;;;;;8.48;4.05;;;15.50;91.10;;;;;;5059917;28;20021;-71
2023/05/05 06:19:33;;;;;;;6.00;4.28;;;15.50;90.70;;;;;;5035952;28;20081;-71
2023/05/05 06:21:59;;;;;;;7.10;3.97;;;15.60;90.50;;;;;;5034627;28;20489;-71
2023/05/05 06:24:25;;;;;;;18.48;4.25;;;15.70;90.30;;;;;;5035787;28;20060;-71
2023/05/05 06:26:50;;;;;;;7.53;3.90;;;15.80;90.20;;;;;;5035451;28;20079;-71
2023/05/05 06:29:16;;;;;;;5.22;3.90;;;15.80;90.00;;;;;;5035682;28;20029;-71
2023/05/05 06:31:42;;;;;;;8.10;3.85;;;15.90;89.80;;;;;;5035444;28;20572;-71
2023/05/05 06:34:08;;;;;;;11.02;4.35;;;16.00;89.60;;;;;;5035646;28;20025;-70
2023/05/05 06:36:33;;;;;;;8.70;4.05;;;16.00;89.50;;;;;;5035012;28;20026;-71
2023/05/05 06:38:59;;;;;;;10.80;3.70;;;16.10;89.60;;;;;;5035028;28;20033;-71
2023/05/05 06:41:25;;;;;;;6.45;4.03;;;16.20;89.50;;;;;;5035384;28;20025;-71
2023/05/05 06:43:50;;;;;;;9.43;3.80;;;16.30;89.00;;;;;;5034204;28;20104;-71
2023/05/05 06:46:16;;;;;;;7.47;3.63;;;16.40;89.00;;;;;;5035587;28;20022;-71
2023/05/05 06:48:42;;;;;;;6.22;4.07;;;16.40;88.70;;;;;;5035175;28;20034;-71
2023/05/05 06:51:08;;;;;;;7.93;3.03;;;16.50;88.40;;;;;;5034831;28;20049;-71
2023/05/05 06:53:34;;;;;;;13.00;3.92;;;16.60;88.00;;;;;;5034969;28;20485;-71
2023/05/05 06:56:00;;;;;;;5.35;2.97;;;16.70;87.80;;;;;;5035270;28;20032;-71
2023/05/05 06:58:26;;;;;;;4.63;2.83;;;16.70;87.10;;;;;;5034866;28;20111;-71
2023/05/05 07:00:52;;;;;;;7.47;3.20;;;16.80;86.80;;;;;;5035293;28;20021;-71
2023/05/05 07:03:18;;;;;;;6.57;3.20;;;16.90;85.70;;;;;;5050394;28;20021;-71
2023/05/05 07:05:44;;;;;;;4.35;3.13;;;17.00;85.30;;;;;;5034638;28;20024;-71
2023/05/05 07:08:10;;;;;;;6.53;3.30;;;17.00;85.00;;;;;;5035136;28;20025;-71
2023/05/05 07:10:36;;;;;;;4.30;2.80;;;17.10;84.70;;;;;;5034137;28;20068;-73
2023/05/05 07:13:01;;;;;;;3.88;2.95;;;17.20;85.00;;;;;;5034747;28;20029;-73
2023/05/05 07:15:27;;;;;;;4.10;3.25;;;17.30;85.10;;;;;;5034766;28;20424;-72
2023/05/05 07:17:53;;;;;;;7.75;3.00;;;17.30;84.80;;;;;;5034763;28;20029;-68
2023/05/05 07:20:18;;;;;;;6.10;2.85;;;17.40;84.40;;;;;;5035353;28;20057;-67
2023/05/05 07:22:44;;;;;;;6.55;3.22;;;17.50;84.10;;;;;;5034997;28;20138;-68
2023/05/05 07:25:10;;;;;;;4.05;2.83;;;17.50;83.20;;;;;;5035133;28;20377;-68
2023/05/05 07:27:36;;;;;;;4.55;2.88;;;17.60;83.40;;;;;;5034730;28;20025;-70
2023/05/05 07:30:03;;;;;;;7.68;3.03;;;17.70;83.40;;;;;;5034650;28;20053;-68
2023/05/05 07:32:28;;;;;;;4.55;2.80;;;17.70;82.60;;;;;;5034183;28;20030;-68
2023/05/05 07:34:54;;;;;;;5.47;3.10;;;17.90;81.90;;;;;;5034668;28;20108;-68
2023/05/05 07:37:20;;;;;;;4.95;3.13;;;17.90;82.50;;;;;;5034563;28;20339;-69
2023/05/05 07:39:47;;;;;;;7.18;2.80;;;18.00;81.80;;;;;;5034767;28;20037;-69
2023/05/05 07:42:13;;;;;;;6.35;2.83;;;18.10;81.20;;;;;;5034572;28;20025;-68
2023/05/05 07:44:39;;;;;;;3.58;2.92;;;18.10;81.80;;;;;;5034736;28;20033;-69
2023/05/05 07:47:05;;;;;;;6.38;2.80;;;18.20;81.20;;;;;;5034241;28;20064;-68
2023/05/05 07:49:31;;;;;;;9.98;2.72;;;18.30;80.30;;;;;;5032969;28;20088;-68
2023/05/05 07:51:56;;;;;;;5.18;2.80;;;18.40;79.30;;;;;;5033632;28;20551;-68
2023/05/05 07:54:22;;;;;;;3.83;2.78;;;18.40;78.90;;;;;;5034399;28;20025;-67
2023/05/05 07:56:48;;;;;;;5.20;3.17;;;18.50;78.70;;;;;;5034137;28;20048;-68
2023/05/05 07:59:14;;;;;;;5.85;3.08;;;18.50;78.70;;;;;;5034079;28;20039;-68
2023/05/05 08:01:40;;;;;;;6.03;3.40;;;18.60;78.00;;;;;;5033269;28;20021;-68
2023/05/05 08:04:06;;;;;;;8.57;2.67;;;18.70;78.00;;;;;;5033881;28;20547;-68
2023/05/05 08:06:32;;;;;;;5.65;2.38;;;18.80;77.00;;;;;;5034406;28;20105;-68
2023/05/05 08:09:01;;;;;;;4.57;2.55;;;18.80;76.20;;;;;;5034335;28;20025;-68
2023/05/05 08:11:27;;;;;;;6.53;2.58;;;18.90;75.80;;;;;;5033889;28;20030;-68
2023/05/05 08:13:53;;;;;;;5.63;2.85;;;18.90;74.90;;;;;;5034180;28;20025;-67
2023/05/05 08:16:18;;;;;;;8.57;3.10;;;19.10;74.50;;;;;;5034157;28;20026;-68
2023/05/05 08:18:45;;;;;;;5.80;2.63;;;19.10;74.40;;;;;;5033782;28;20382;-69
2023/05/05 08:21:11;;;;;;;4.95;2.67;;;19.20;74.70;;;;;;5031947;28;20029;-67
2023/05/05 08:23:38;;;;;;;8.23;3.03;;;19.30;73.70;;;;;;5034035;28;20477;-68
2023/05/05 08:26:05;;;;;;;6.65;2.83;;;19.40;74.00;;;;;;5034318;28;20030;-68
2023/05/05 08:28:31;;;;;;;6.20;3.22;;;19.50;74.30;;;;;;5034117;28;20025;-69
2023/05/05 08:30:57;;;;;;;7.00;3.20;;;19.60;73.60;;;;;;5033771;28;20144;-68
2023/05/05 08:33:24;;;;;;;9.48;2.92;;;19.70;72.40;;;;;;5033963;28;20117;-68
2023/05/05 08:35:49;;;;;;;8.77;3.40;;;19.70;72.00;;;;;;5033936;28;20025;-68
2023/05/05 08:38:16;;;;;;;10.40;2.72;;;19.80;72.70;;;;;;5033792;28;20040;-68
2023/05/05 08:40:42;;;;;;;7.35;3.17;;;19.90;72.40;;;;;;5033703;28;20029;-69
2023/05/05 08:43:08;;;;;;;6.13;2.90;;;19.90;72.60;;;;;;5033341;28;20021;-68
2023/05/05 08:45:34;;;;;;;8.80;2.92;;;20.00;71.40;;;;;;5033528;28;20091;-68
2023/05/05 08:48:01;;;;;;;10.27;3.22;;;20.00;70.90;;;;;;5033383;28;20018;-68
2023/05/05 08:50:28;;;;;;;10.50;3.40;;;20.10;70.40;;;;;;5033343;28;20021;-68
2023/05/05 08:53:10;;;;;;;13.23;3.25;;;20.10;70.70;;;;;;5032833;28;20037;-68
2023/05/05 08:55:50;;;;;;;6.95;2.92;;;20.20;70.40;;;;;;5033015;28;20029;-68
2023/05/05 08:58:17;;;;;;;7.25;2.60;;;20.40;70.70;;;;;;5033090;28;20041;-68
2023/05/05 09:00:45;;;;;;;8.52;3.17;;;20.50;70.40;;;;;;5033241;28;20547;-68
2023/05/05 09:03:11;;;;;;;8.52;3.30;;;20.60;70.90;;;;;;5033280;28;20021;-68
2023/05/05 09:05:37;;;;;;;8.65;3.67;;;20.70;71.30;;;;;;5033226;28;20028;-68
2023/05/05 09:08:08;;;;;;;12.82;3.58;;;20.70;71.00;;;;;;5032760;28;20025;-68
2023/05/05 09:10:37;;;;;;;7.93;3.10;;;20.90;70.50;;;;;;5032894;28;20492;-69
2023/05/05 09:13:04;;;;;;;4.78;3.03;;;21.00;70.40;;;;;;5032763;28;20021;-68
2023/05/05 09:15:31;;;;;;;5.35;3.70;;;21.00;70.50;;;;;;5032729;28;20037;-68
2023/05/05 09:17:58;;;;;;;5.05;3.58;;;21.10;67.00;;;;;;5031530;28;20504;-67
2023/05/05 09:20:28;;;;;;;6.97;3.60;;;21.20;68.20;;;;;;5033022;28;20550;-68
2023/05/05 09:22:54;;;;;;;5.38;3.60;;;21.30;66.00;;;;;;5032646;28;20124;-68
2023/05/05 09:25:20;;;;;;;4.50;3.80;;;21.30;66.60;;;;;;5032478;28;20108;-68
2023/05/05 09:27:48;;;;;;;5.53;3.95;;;21.30;65.40;;;;;;5032623;28;20373;-68
2023/05/05 09:30:16;;;;;;;6.57;2.90;;;21.40;67.00;;;;;;5032533;28;20377;-68
2023/05/05 09:32:49;;;;;;;4.00;3.08;;;21.50;64.20;;;;;;5032786;28;20021;-68
2023/05/05 09:35:16;;;;;;;8.30;2.97;;;21.50;65.10;;;;;;5032855;28;20525;-68
2023/05/05 09:37:42;;;;;;;6.93;4.28;;;21.60;65.20;;;;;;5032272;28;20408;-68
2023/05/05 09:40:10;;;;;;;7.82;3.75;;;21.70;65.00;;;;;;5032355;28;20041;-68
2023/05/05 09:42:37;;;;;;;5.78;3.40;;;21.80;64.10;;;;;;5032872;28;20029;-68
2023/05/05 09:45:16;;;;;;;5.10;3.10;;;21.80;64.40;;;;;;5032817;28;20033;-71
2023/05/05 09:47:42;;;;;;;6.07;3.15;;;21.90;63.70;;;;;;5032651;28;20021;-68
2023/05/05 09:50:10;;;;;;;5.20;3.15;;;22.00;65.40;;;;;;5032687;28;20075;-68
2023/05/05 09:52:36;;;;;;;6.90;3.40;;;22.10;64.90;;;;;;5032625;28;20064;-68
2023/05/05 09:55:02;;;;;;;8.90;3.15;;;22.10;63.90;;;;;;5034403;28;20018;-68
2023/05/05 09:57:30;;;;;;;4.55;3.03;;;22.20;63.80;;;;;;5036946;28;20036;-68
2023/05/05 09:59:58;;;;;;;4.72;3.05;;;22.30;62.00;;;;;;5036787;28;20120;-68
2023/05/05 10:02:31;;;;;;;5.18;3.70;;;22.30;61.10;;;;;;5036587;28;20027;-68
2023/05/05 10:05:14;;;;;;;6.80;3.88;;;22.40;61.00;;;;;;5036435;28;20094;-68
2023/05/05 10:07:41;;;;;;;5.45;3.28;;;22.40;62.20;;;;;;5035935;28;20416;-68
2023/05/05 10:10:12;;;;;;;4.90;4.38;;;22.50;62.60;;;;;;5035953;28;20025;-68
2023/05/05 10:12:39;;;;;;;4.72;4.10;;;22.60;63.40;;;;;;5036439;28;20548;-68
2023/05/05 10:15:06;;;;;;;5.05;3.25;;;22.60;63.10;;;;;;5036022;28;20397;-68
2023/05/05 10:17:35;;;;;;;8.63;2.72;;;22.70;63.40;;;;;;5036098;28;20052;-68
2023/05/05 10:20:02;;;;;;;6.18;3.80;;;22.80;61.20;;;;;;5036136;28;20029;-68
2023/05/05 10:22:33;;;;;;;4.20;3.17;;;22.80;61.90;;;;;;5035884;28;20518;-68
2023/05/05 10:25:13;;;;;;;5.85;3.42;;;22.80;60.70;;;;;;5036032;28;20021;-68
2023/05/05 10:27:44;;;;;;;4.03;3.08;;;22.90;60.50;;;;;;5035894;28;20040;-68
2023/05/05 10:30:22;;;;;;;4.13;2.70;;;22.90;60.50;;;;;;5035933;28;20026;-68
2023/05/05 10:32:50;;;;;;;5.05;3.05;;;23.00;59.80;;;;;;5035468;28;20034;-68
2023/05/05 10:35:21;;;;;;;4.30;2.83;;;23.00;57.50;;;;;;5035852;28;20036;-68
2023/05/05 10:37:47;;;;;;;8.65;3.33;;;23.00;58.50;;;;;;5035806;28;20478;-68
2023/05/05 10:40:14;;;;;;;8.00;3.30;;;23.10;60.10;;;;;;5035335;28;20486;-69
2023/05/05 10:42:41;;;;;;;4.82;2.90;;;23.10;61.00;;;;;;5035459;28;20025;-68
2023/05/05 10:45:07;;;;;;;10.50;2.70;;;23.20;59.80;;;;;;5035591;28;20018;-69
2023/05/05 10:47:35;;;;;;;5.70;3.20;;;23.20;60.60;;;;;;5035445;28;20025;-68
2023/05/05 10:50:10;;;;;;;5.10;2.92;;;23.30;59.60;;;;;;5035407;28;20022;-68
2023/05/05 10:52:55;;;;;;;4.63;3.08;;;23.30;59.90;;;;;;5035319;28;20531;-69
2023/05/05 10:55:36;;;;;;;6.07;3.60;;;23.40;58.80;;;;;;5035376;28;20025;-68
2023/05/05 10:58:02;;;;;;;5.43;3.00;;;23.40;59.70;;;;;;5035416;28;20029;-68
2023/05/05 11:00:40;;;;;;;3.63;2.85;;;23.50;59.50;;;;;;5035540;28;20378;-68
2023/05/05 11:03:15;;;;;;;6.45;2.65;;;23.50;60.00;;;;;;5034999;28;20389;-68
2023/05/05 11:06:13;;;;;;;4.13;2.92;;;23.60;60.70;;;;;;5035279;28;20022;-68
2023/05/05 11:08:43;;;;;;;6.30;3.65;;;23.60;59.30;;;;;;5001537;28;20389;-68
2023/05/05 11:11:10;;;;;;;8.48;3.05;;;23.70;57.20;;;;;;5034835;28;20032;-68
2023/05/05 11:13:37;;;;;;;7.97;2.70;;;23.70;57.40;;;;;;5033494;28;20033;-68
2023/05/05 11:16:04;;;;;;;4.30;2.85;;;23.70;57.40;;;;;;5032411;28;20481;-68
2023/05/05 11:18:35;;;;;;;5.15;3.15;;;23.70;57.20;;;;;;5033280;28;20033;-68
2023/05/05 11:21:00;;;;;;;4.90;3.03;;;23.70;57.70;;;;;;5035050;28;20017;-68
2023/05/05 11:23:27;;;;;;;4.88;3.13;;;23.80;58.10;;;;;;5035328;28;20064;-68
2023/05/05 11:25:53;;;;;;;4.03;2.65;;;23.70;57.10;;;;;;5035457;28;20449;-68
2023/05/05 11:28:30;;;;;;;4.60;3.00;;;23.80;59.20;;;;;;5034897;28;20021;-68
2023/05/05 11:30:56;;;;;;;7.07;2.92;;;23.80;60.50;;;;;;5032462;28;20025;-68
2023/05/05 11:33:35;;;;;;;3.25;2.58;;;23.90;57.00;;;;;;5032325;28;20033;-68
2023/05/05 11:36:12;;;;;;;4.97;2.70;;;23.90;57.20;;;;;;5032435;28;20130;-68
2023/05/05 11:38:40;;;;;;;4.68;3.00;;;24.00;56.40;;;;;;5034309;28;20205;-68
2023/05/05 11:41:13;;;;;;;4.40;3.10;;;24.00;55.90;;;;;;5034328;28;20030;-67
2023/05/05 11:43:41;;;;;;;7.50;2.70;;;24.00;56.40;;;;;;5033934;28;20428;-69
2023/05/05 11:46:11;;;;;;;9.88;2.53;;;24.00;57.00;;;;;;5034115;28;20113;-68
2023/05/05 11:48:53;;;;;;;8.45;2.42;;;24.00;58.40;;;;;;5034857;28;20025;-67
2023/05/05 11:51:19;;;;;;;7.55;2.88;;;24.10;57.20;;;;;;5034067;28;20056;-68
2023/05/05 11:53:47;;;;;;;5.45;3.03;;;24.10;55.90;;;;;;5033618;28;20029;-67
2023/05/05 11:56:19;;;;;;;5.97;3.42;;;24.10;56.10;;;;;;5034031;28;20039;-67
2023/05/05 11:59:03;;;;;;;3.60;2.90;;;24.20;56.50;;;;;;5033949;28;20061;-68
2023/05/05 12:01:29;;;;;;;5.15;2.80;;;24.20;56.40;;;;;;5033614;28;20045;-69
2023/05/05 12:03:55;;;;;;;5.13;2.70;;;24.20;55.90;;;;;;5033767;28;20053;-68
2023/05/05 12:06:21;;;;;;;4.43;2.83;;;24.20;56.20;;;;;;5033921;28;20385;-69
2023/05/05 12:08:47;;;;;;;5.07;2.38;;;24.30;55.70;;;;;;5033531;28;20032;-68
2023/05/05 12:11:12;;;;;;;5.63;2.72;;;24.30;55.40;;;;;;5033739;28;20026;-68
2023/05/05 12:13:38;;;;;;;4.30;2.70;;;24.30;55.40;;;;;;5033814;28;20032;-68
2023/05/05 12:16:22;;;;;;;5.57;2.70;;;24.30;55.10;;;;;;5033409;28;20030;-68
2023/05/05 12:19:06;;;;;;;4.00;2.70;;;24.30;55.40;;;;;;5032490;28;20033;-68
2023/05/05 12:21:32;;;;;;;4.40;3.00;;;24.50;56.50;;;;;;5033408;28;20022;-68
2023/05/05 12:23:58;;;;;;;3.78;2.95;;;24.50;58.10;;;;;;5033385;28;20029;-69
2023/05/05 12:26:29;;;;;;;6.25;2.92;;;24.60;56.20;;;;;;5032586;28;20025;-68
2023/05/05 12:28:56;;;;;;;4.68;2.85;;;24.60;56.00;;;;;;5031172;28;20036;-68
2023/05/05 12:31:22;;;;;;;5.88;3.08;;;24.60;55.70;;;;;;5030966;28;20029;-70
2023/05/05 12:33:49;;;;;;;4.30;2.95;;;24.70;54.80;;;;;;5032738;28;20390;-68
2023/05/05 12:36:15;;;;;;;2.92;2.60;;;24.70;55.60;;;;;;5033651;28;20373;-68
2023/05/05 12:38:41;;;;;;;2.75;2.35;;;24.70;55.70;;;;;;5033283;28;20038;-68
2023/05/05 12:41:06;;;;;;;3.25;2.88;;;24.70;54.50;;;;;;5033367;28;20386;-67
2023/05/05 12:43:34;;;;;;;4.50;2.40;;;24.70;53.70;;;;;;5033065;28;20109;-68
2023/05/05 12:46:09;;;;;;;5.63;3.00;;;24.70;54.70;;;;;;5033420;28;20045;-68
2023/05/05 12:48:39;;;;;;;3.72;2.92;;;24.70;54.20;;;;;;5033274;28;20100;-68
2023/05/05 12:51:21;;;;;;;7.13;3.50;;;24.70;54.20;;;;;;5033063;28;20026;-68